createdAt,value
2019-04-27T00:01:11.489Z,99.90
2019-04-27T00:02:36.682Z,99.90
2019-04-27T00:04:07.052Z,99.90
2019-04-27T00:05:32.422Z,99.90
2019-04-27T00:06:33.731Z,99.90
2019-04-27T00:07:40.913Z,99.90
2019-04-27T00:08:49.550Z,99.90
2019-04-27T00:09:59.550Z,99.90
2019-04-27T00:11:14.124Z,99.90
2019-04-27T00:12:22.843Z,99.90
2019-04-27T00:13:22.955Z,99.90
2019-04-27T00:14:25.995Z,99.90
2019-04-27T00:15:43.942Z,99.90
2019-04-27T00:17:42.470Z,99.90
2019-04-27T00:18:57.937Z,99.90
2019-04-27T00:20:34.695Z,99.90
2019-04-27T00:22:03.234Z,99.90
2019-04-27T00:23:09.267Z,99.90
2019-04-27T00:24:13.548Z,99.90
2019-04-27T00:25:16.276Z,99.90
2019-04-27T00:26:19.140Z,99.90
2019-04-27T00:27:23.374Z,99.90
2019-04-27T00:28:26.214Z,99.90
2019-04-27T00:29:30.849Z,99.90
2019-04-27T00:30:35.655Z,99.90
2019-04-27T00:31:38.931Z,99.90
2019-04-27T00:32:43.405Z,99.90
2019-04-27T00:33:46.605Z,99.90
2019-04-27T00:34:49.156Z,99.90
2019-04-27T00:36:00.093Z,99.90
2019-04-27T00:37:28.445Z,99.90
2019-04-27T00:38:47.497Z,99.90
2019-04-27T00:39:59.994Z,99.90
2019-04-27T00:41:06.014Z,99.90
2019-04-27T00:42:08.549Z,99.90
2019-04-27T00:43:11.725Z,99.90
2019-04-27T00:44:14.728Z,99.90
2019-04-27T00:45:17.248Z,99.90
2019-04-27T00:46:19.975Z,99.90
2019-04-27T00:47:23.862Z,99.90
2019-04-27T00:48:26.699Z,99.90
2019-04-27T00:49:29.232Z,99.90
2019-04-27T00:50:33.652Z,99.90
2019-04-27T00:51:36.483Z,99.90
2019-04-27T00:52:39.032Z,99.90
2019-04-27T00:53:43.377Z,99.90
2019-04-27T00:54:47.788Z,99.90
2019-04-27T00:56:13.961Z,99.90
2019-04-27T00:57:39.131Z,99.90
2019-04-27T00:59:01.482Z,99.90
2019-04-27T01:00:26.779Z,99.90
2019-04-27T01:01:33.377Z,99.90
2019-04-27T01:02:49.312Z,99.90
2019-04-27T01:03:55.608Z,99.90
2019-04-27T01:04:58.185Z,99.90
2019-04-27T01:06:00.831Z,99.90
2019-04-27T01:07:04.778Z,99.90
2019-04-27T01:08:07.339Z,99.90
2019-04-27T01:09:13.414Z,99.90
2019-04-27T01:10:16.096Z,99.90
2019-04-27T01:11:18.959Z,99.90
2019-04-27T01:12:23.629Z,99.90
2019-04-27T01:13:29.219Z,99.90
2019-04-27T01:14:31.086Z,99.90
2019-04-27T01:15:34.081Z,99.90
2019-04-27T01:16:36.962Z,99.90
2019-04-27T01:17:39.668Z,99.90
2019-04-27T01:18:42.196Z,99.90
2019-04-27T01:19:44.830Z,99.90
2019-04-27T01:20:48.898Z,99.90
2019-04-27T01:21:52.024Z,99.90
2019-04-27T01:22:54.650Z,99.90
2019-04-27T01:23:58.899Z,99.90
2019-04-27T01:25:01.901Z,99.90
2019-04-27T01:26:23.955Z,99.90
2019-04-27T01:28:04.458Z,99.90
2019-04-27T01:29:11.372Z,99.90
2019-04-27T01:30:24.282Z,99.90
2019-04-27T01:31:26.900Z,99.90
2019-04-27T01:32:29.476Z,99.90
2019-04-27T01:33:32.010Z,99.90
2019-04-27T01:34:34.659Z,99.90
2019-04-27T01:35:38.987Z,99.90
2019-04-27T01:36:41.784Z,99.90
2019-04-27T01:37:44.318Z,99.90
2019-04-27T01:38:46.958Z,99.90
2019-04-27T01:39:50.452Z,99.90
2019-04-27T01:40:53.334Z,99.90
2019-04-27T01:41:56.009Z,99.90
2019-04-27T01:42:58.977Z,99.90
2019-04-27T01:44:02.138Z,99.90
2019-04-27T01:45:05.610Z,99.90
2019-04-27T01:46:09.161Z,99.90
2019-04-27T01:47:11.849Z,99.90
2019-04-27T01:48:22.939Z,99.90
2019-04-27T01:49:19.375Z,99.90
2019-04-27T01:50:22.107Z,99.90
2019-04-27T01:51:24.759Z,99.90
2019-04-27T01:52:27.498Z,99.90
2019-04-27T01:53:30.469Z,99.90
2019-04-27T01:54:33.715Z,99.90
2019-04-27T01:55:36.484Z,99.90
2019-04-27T01:56:39.527Z,99.90
2019-04-27T01:57:42.156Z,99.90
2019-04-27T01:58:44.957Z,99.90
2019-04-27T01:59:48.929Z,99.90
2019-04-27T02:01:20.657Z,99.90
2019-04-27T02:02:35.043Z,99.90
2019-04-27T02:03:52.352Z,99.90
2019-04-27T02:05:29.598Z,99.90
2019-04-27T02:06:32.300Z,99.90
2019-04-27T02:07:35.557Z,99.90
2019-04-27T02:08:38.099Z,99.90
2019-04-27T02:09:41.103Z,99.90
2019-04-27T02:10:43.733Z,99.90
2019-04-27T02:11:46.551Z,99.90
2019-04-27T02:12:49.203Z,99.90
2019-04-27T02:13:51.969Z,99.90
2019-04-27T02:14:54.652Z,99.90
2019-04-27T02:15:58.840Z,99.90
2019-04-27T02:17:01.905Z,99.90
2019-04-27T02:18:04.564Z,99.90
2019-04-27T02:19:09.028Z,99.90
2019-04-27T02:20:11.882Z,99.90
2019-04-27T02:21:14.612Z,99.90
2019-04-27T02:22:18.694Z,99.90
2019-04-27T02:23:21.700Z,99.90
2019-04-27T02:24:26.061Z,99.90
2019-04-27T02:25:29.475Z,99.90
2019-04-27T02:26:32.377Z,99.90
2019-04-27T02:27:36.321Z,99.90
2019-04-27T02:28:58.463Z,99.90
2019-04-27T02:30:20.643Z,99.90
2019-04-27T02:31:40.642Z,99.90
2019-04-27T02:33:05.646Z,99.90
2019-04-27T02:34:19.682Z,99.90
2019-04-27T02:35:21.613Z,99.90
2019-04-27T02:36:24.257Z,99.90
2019-04-27T02:37:26.864Z,99.90
2019-04-27T02:38:30.582Z,99.90
2019-04-27T02:39:33.606Z,99.90
2019-04-27T02:40:50.950Z,99.90
2019-04-27T02:41:53.566Z,99.90
2019-04-27T02:42:56.548Z,99.90
2019-04-27T02:44:11.506Z,99.90
2019-04-27T02:45:14.140Z,99.90
2019-04-27T02:46:19.800Z,99.90
2019-04-27T02:47:23.119Z,99.90
2019-04-27T02:48:25.717Z,99.90
2019-04-27T02:49:30.557Z,99.90
2019-04-27T02:50:33.486Z,99.90
2019-04-27T02:51:54.901Z,99.90
2019-04-27T02:53:00.290Z,99.90
2019-04-27T02:54:03.574Z,99.90
2019-04-27T02:55:06.633Z,99.90
2019-04-27T02:56:10.221Z,99.90
2019-04-27T02:57:13.277Z,99.90
2019-04-27T02:58:15.907Z,99.90
2019-04-27T02:59:19.861Z,99.90
2019-04-27T03:00:22.878Z,99.90
2019-04-27T03:01:30.179Z,99.90
2019-04-27T03:02:51.986Z,99.90
2019-04-27T03:03:54.952Z,99.90
2019-04-27T03:04:57.442Z,99.90
2019-04-27T03:06:00.011Z,99.90
2019-04-27T03:07:02.746Z,99.90
2019-04-27T03:08:05.581Z,99.90
2019-04-27T03:09:10.473Z,99.90
2019-04-27T03:10:12.861Z,99.90
2019-04-27T03:11:15.930Z,99.90
2019-04-27T03:12:20.279Z,99.90
2019-04-27T03:13:30.446Z,99.90
2019-04-27T03:15:03.081Z,99.90
2019-04-27T03:16:29.670Z,99.90
2019-04-27T03:17:52.120Z,99.90
2019-04-27T03:19:29.683Z,99.90
2019-04-27T03:20:40.898Z,99.90
2019-04-27T03:21:59.556Z,99.90
2019-04-27T03:23:04.875Z,99.90
2019-04-27T03:24:09.824Z,99.90
2019-04-27T03:25:32.762Z,99.90
2019-04-27T03:26:50.495Z,99.90
2019-04-27T03:27:54.085Z,99.90
2019-04-27T03:28:56.754Z,99.90
2019-04-27T03:30:00.323Z,99.90
2019-04-27T03:31:03.273Z,99.90
2019-04-27T03:32:06.133Z,99.90
2019-04-27T03:33:11.845Z,99.90
2019-04-27T03:34:16.320Z,99.90
2019-04-27T03:35:22.243Z,99.90
2019-04-27T03:36:22.804Z,99.90
2019-04-27T03:37:25.802Z,99.90
2019-04-27T03:38:30.069Z,99.90
2019-04-27T03:39:35.008Z,99.90
2019-04-27T03:40:40.171Z,99.90
2019-04-27T03:41:42.850Z,99.90
2019-04-27T03:42:49.830Z,99.90
2019-04-27T03:43:51.842Z,99.90
2019-04-27T03:44:54.723Z,99.90
2019-04-27T03:46:00.461Z,99.90
2019-04-27T03:47:03.567Z,99.90
2019-04-27T03:48:06.195Z,99.90
2019-04-27T03:49:09.784Z,99.90
2019-04-27T03:50:16.643Z,99.90
2019-04-27T03:51:36.731Z,99.90
2019-04-27T03:52:51.803Z,99.90
2019-04-27T03:54:24.389Z,99.90
2019-04-27T03:55:30.629Z,99.90
2019-04-27T03:56:36.216Z,99.90
2019-04-27T03:57:44.688Z,99.90
2019-04-27T03:58:50.987Z,99.90
2019-04-27T04:00:05.348Z,99.90
2019-04-27T04:01:10.290Z,99.90
2019-04-27T04:02:13.655Z,99.90
2019-04-27T04:03:16.554Z,99.90
2019-04-27T04:04:21.941Z,99.90
2019-04-27T04:05:24.917Z,99.90
2019-04-27T04:06:29.500Z,99.90
2019-04-27T04:07:32.599Z,99.90
2019-04-27T04:08:35.272Z,99.90
2019-04-27T04:09:40.343Z,99.90
2019-04-27T04:10:49.516Z,99.90
2019-04-27T04:12:02.230Z,99.90
2019-04-27T04:13:12.743Z,99.90
2019-04-27T04:14:20.115Z,99.90
2019-04-27T04:15:30.156Z,99.90
2019-04-27T04:16:49.875Z,99.90
2019-04-27T04:17:52.461Z,99.90
2019-04-27T04:18:56.988Z,99.90
2019-04-27T04:20:01.785Z,99.90
2019-04-27T04:21:04.908Z,99.90
2019-04-27T04:22:09.997Z,99.90
2019-04-27T04:23:12.115Z,99.90
2019-04-27T04:24:14.872Z,99.90
2019-04-27T04:25:19.957Z,99.90
2019-04-27T04:26:22.293Z,99.90
2019-04-27T04:27:24.819Z,99.90
2019-04-27T04:28:29.658Z,99.90
2019-04-27T04:29:32.344Z,99.90
2019-04-27T04:30:34.863Z,99.90
2019-04-27T04:31:40.137Z,99.90
2019-04-27T04:32:41.969Z,99.90
2019-04-27T04:33:44.615Z,99.90
2019-04-27T04:34:50.096Z,99.90
2019-04-27T04:35:52.107Z,99.90
2019-04-27T04:36:54.743Z,99.90
2019-04-27T04:37:59.988Z,99.90
2019-04-27T04:39:01.828Z,99.90
2019-04-27T04:40:05.101Z,99.90
2019-04-27T04:41:10.862Z,99.90
2019-04-27T04:42:45.278Z,99.90
2019-04-27T04:43:54.542Z,99.90
2019-04-27T04:45:27.255Z,99.90
2019-04-27T04:46:39.790Z,99.90
2019-04-27T04:47:53.772Z,99.90
2019-04-27T04:48:56.300Z,99.90
2019-04-27T04:50:10.317Z,99.90
2019-04-27T04:51:03.379Z,99.90
2019-04-27T04:52:06.092Z,99.90
2019-04-27T04:53:12.189Z,99.90
2019-04-27T04:54:13.336Z,99.90
2019-04-27T04:55:20.442Z,99.90
2019-04-27T04:56:23.294Z,99.90
2019-04-27T04:57:25.995Z,99.90
2019-04-27T04:58:29.422Z,99.90
2019-04-27T04:59:32.178Z,99.90
2019-04-27T05:00:35.117Z,99.90
2019-04-27T05:01:39.733Z,99.90
2019-04-27T05:02:42.153Z,99.90
2019-04-27T05:03:44.762Z,99.90
2019-04-27T05:04:49.131Z,99.90
2019-04-27T05:05:51.825Z,99.90
2019-04-27T05:06:54.597Z,99.90
2019-04-27T05:08:00.383Z,99.90
2019-04-27T05:09:01.722Z,99.90
2019-04-27T05:10:05.160Z,99.90
2019-04-27T05:11:09.519Z,99.90
2019-04-27T05:12:12.314Z,99.90
2019-04-27T05:13:14.827Z,99.90
2019-04-27T05:14:17.391Z,99.90
2019-04-27T05:15:20.714Z,99.90
2019-04-27T05:16:23.678Z,99.90
2019-04-27T05:17:26.318Z,99.90
2019-04-27T05:18:29.435Z,99.90
2019-04-27T05:19:32.018Z,99.90
2019-04-27T05:20:50.440Z,99.90
2019-04-27T05:21:53.110Z,99.90
2019-04-27T05:22:55.748Z,99.90
2019-04-27T05:23:58.656Z,99.90
2019-04-27T05:25:03.354Z,99.90
2019-04-27T05:26:05.972Z,99.90
2019-04-27T05:27:09.239Z,99.90
2019-04-27T05:28:12.211Z,99.90
2019-04-27T05:29:14.936Z,99.90
2019-04-27T05:30:17.579Z,99.90
2019-04-27T05:31:20.243Z,99.90
2019-04-27T05:32:22.790Z,99.90
2019-04-27T05:33:25.394Z,99.90
2019-04-27T05:34:29.430Z,99.50
2019-04-27T05:35:32.441Z,99.90
2019-04-27T05:36:34.979Z,99.90
2019-04-27T05:37:38.962Z,99.40
2019-04-27T05:38:46.002Z,99.90
2019-04-27T05:39:46.445Z,99.70
2019-04-27T05:40:49.985Z,99.40
2019-04-27T05:41:52.876Z,99.90
2019-04-27T05:42:56.268Z,99.90
2019-04-27T05:44:18.380Z,99.90
2019-04-27T05:46:14.875Z,99.90
2019-04-27T05:47:36.877Z,99.70
2019-04-27T05:48:39.666Z,98.60
2019-04-27T05:49:44.776Z,99.90
2019-04-27T05:50:51.448Z,99.70
2019-04-27T05:51:52.425Z,99.80
2019-04-27T05:52:54.949Z,99.40
2019-04-27T05:53:58.700Z,98.60
2019-04-27T05:55:01.450Z,98.90
2019-04-27T05:56:03.982Z,98.40
2019-04-27T05:57:06.584Z,99.00
2019-04-27T05:58:10.290Z,99.40
2019-04-27T05:59:14.870Z,99.50
2019-04-27T06:00:19.407Z,98.70
2019-04-27T06:01:21.958Z,97.80
2019-04-27T06:02:26.387Z,97.80
2019-04-27T06:03:29.667Z,99.30
2019-04-27T06:04:32.477Z,98.70
2019-04-27T06:05:35.207Z,99.00
2019-04-27T06:06:39.996Z,98.70
2019-04-27T06:07:42.691Z,98.50
2019-04-27T06:08:45.530Z,97.40
2019-04-27T06:09:49.277Z,98.50
2019-04-27T06:10:51.968Z,98.10
2019-04-27T06:11:54.493Z,98.00
2019-04-27T06:12:57.434Z,97.90
2019-04-27T06:14:00.077Z,97.40
2019-04-27T06:15:03.190Z,98.70
2019-04-27T06:16:05.941Z,96.70
2019-04-27T06:17:09.489Z,96.50
2019-04-27T06:18:12.269Z,96.20
2019-04-27T06:19:15.054Z,97.30
2019-04-27T06:20:18.841Z,97.10
2019-04-27T06:21:21.767Z,97.30
2019-04-27T06:22:24.290Z,97.60
2019-04-27T06:23:28.772Z,97.60
2019-04-27T06:24:31.505Z,96.70
2019-04-27T06:25:34.114Z,97.40
2019-04-27T06:26:36.858Z,97.80
2019-04-27T06:27:39.838Z,97.50
2019-04-27T06:28:43.702Z,97.90
2019-04-27T06:29:46.281Z,98.30
2019-04-27T06:30:49.294Z,97.60
2019-04-27T06:31:52.165Z,96.20
2019-04-27T06:32:54.882Z,97.10
2019-04-27T06:33:57.512Z,99.80
2019-04-27T06:35:00.555Z,98.30
2019-04-27T06:36:03.108Z,97.20
2019-04-27T06:37:05.712Z,96.90
2019-04-27T06:38:10.199Z,96.10
2019-04-27T06:39:13.158Z,96.10
2019-04-27T06:40:16.757Z,97.20
2019-04-27T06:41:19.333Z,97.50
2019-04-27T06:42:21.864Z,97.30
2019-04-27T06:43:24.639Z,97.50
2019-04-27T06:44:27.158Z,96.70
2019-04-27T06:45:29.785Z,97.10
2019-04-27T06:46:32.485Z,96.70
2019-04-27T06:47:35.048Z,97.20
2019-04-27T06:48:39.368Z,97.20
2019-04-27T06:49:42.250Z,96.10
2019-04-27T06:50:44.813Z,96.20
2019-04-27T06:51:47.573Z,96.50
2019-04-27T06:52:50.449Z,97.10
2019-04-27T06:53:53.134Z,97.00
2019-04-27T06:55:00.623Z,96.80
2019-04-27T06:56:03.776Z,96.60
2019-04-27T06:57:06.381Z,97.30
2019-04-27T06:58:09.083Z,97.50
2019-04-27T06:59:11.954Z,96.70
2019-04-27T07:00:14.488Z,97.30
2019-04-27T07:01:17.041Z,97.50
2019-04-27T07:02:19.581Z,96.30
2019-04-27T07:03:22.142Z,97.30
2019-04-27T07:04:24.720Z,96.90
2019-04-27T07:05:28.918Z,97.00
2019-04-27T07:06:31.794Z,96.60
2019-04-27T07:07:34.433Z,96.70
2019-04-27T07:08:37.016Z,97.50
2019-04-27T07:09:39.547Z,97.60
2019-04-27T07:10:42.225Z,97.50
2019-04-27T07:11:44.868Z,97.00
2019-04-27T07:12:49.039Z,96.60
2019-04-27T07:13:52.062Z,97.20
2019-04-27T07:14:55.184Z,97.40
2019-04-27T07:16:00.949Z,98.30
2019-04-27T07:17:03.797Z,96.40
2019-04-27T07:18:06.630Z,95.60
2019-04-27T07:19:09.568Z,95.60
2019-04-27T07:20:12.435Z,95.70
2019-04-27T07:21:18.830Z,96.30
2019-04-27T07:22:20.032Z,96.50
2019-04-27T07:23:23.152Z,96.00
2019-04-27T07:24:25.790Z,95.90
2019-04-27T07:25:28.893Z,95.40
2019-04-27T07:26:31.572Z,93.50
2019-04-27T07:27:34.517Z,93.50
2019-04-27T07:28:37.092Z,91.90
2019-04-27T07:29:44.663Z,92.40
2019-04-27T07:30:46.107Z,91.60
2019-04-27T07:31:49.581Z,90.20
2019-04-27T07:32:52.701Z,89.90
2019-04-27T07:33:56.564Z,90.20
2019-04-27T07:35:00.446Z,88.50
2019-04-27T07:36:04.210Z,90.40
2019-04-27T07:37:06.744Z,89.10
2019-04-27T07:38:11.234Z,86.50
2019-04-27T07:39:13.806Z,86.40
2019-04-27T07:40:18.775Z,84.60
2019-04-27T07:41:21.380Z,87.00
2019-04-27T07:42:23.989Z,83.20
2019-04-27T07:43:56.151Z,81.20
2019-04-27T07:45:06.049Z,82.00
2019-04-27T07:46:09.004Z,85.40
2019-04-27T07:47:37.272Z,85.00
2019-04-27T07:48:40.071Z,85.20
2019-04-27T07:49:42.616Z,78.50
2019-04-27T07:50:45.191Z,80.20
2019-04-27T07:51:48.925Z,78.80
2019-04-27T07:52:51.784Z,79.70
2019-04-27T07:53:54.379Z,78.60
2019-04-27T07:54:58.673Z,82.30
2019-04-27T07:56:02.637Z,75.80
2019-04-27T07:57:05.201Z,75.40
2019-04-27T07:58:09.151Z,79.50
2019-04-27T07:59:11.873Z,80.30
2019-04-27T08:00:15.340Z,75.40
2019-04-27T08:01:19.271Z,76.40
2019-04-27T08:02:22.014Z,74.20
2019-04-27T08:03:24.800Z,81.40
2019-04-27T08:04:28.757Z,82.00
2019-04-27T08:05:31.663Z,76.80
2019-04-27T08:06:34.369Z,74.10
2019-04-27T08:07:38.981Z,76.20
2019-04-27T08:08:41.574Z,73.90
2019-04-27T08:09:44.300Z,75.10
2019-04-27T08:10:48.448Z,74.10
2019-04-27T08:11:51.437Z,74.40
2019-04-27T08:12:54.087Z,70.20
2019-04-27T08:13:58.668Z,78.70
2019-04-27T08:15:01.401Z,68.90
2019-04-27T08:16:03.831Z,71.40
2019-04-27T08:17:06.872Z,64.60
2019-04-27T08:18:09.550Z,64.20
2019-04-27T08:19:12.430Z,64.70
2019-04-27T08:20:15.079Z,69.30
2019-04-27T08:21:19.023Z,63.60
2019-04-27T08:22:21.569Z,66.00
2019-04-27T08:23:24.345Z,67.10
2019-04-27T08:24:26.864Z,62.60
2019-04-27T08:25:30.847Z,66.50
2019-04-27T08:26:40.608Z,74.60
2019-04-27T08:28:00.232Z,71.20
2019-04-27T08:29:25.635Z,70.50
2019-04-27T08:30:53.044Z,69.60
2019-04-27T08:31:59.137Z,67.00
2019-04-27T08:33:03.745Z,71.60
2019-04-27T08:34:08.620Z,66.70
2019-04-27T08:35:11.688Z,69.10
2019-04-27T08:36:14.220Z,67.30
2019-04-27T08:37:18.689Z,65.80
2019-04-27T08:38:21.480Z,69.40
2019-04-27T08:39:24.008Z,66.70
2019-04-27T08:40:26.543Z,62.40
2019-04-27T08:41:29.619Z,64.80
2019-04-27T08:42:34.283Z,69.70
2019-04-27T08:43:38.840Z,65.90
2019-04-27T08:44:41.375Z,64.00
2019-04-27T08:45:44.060Z,62.40
2019-04-27T08:46:46.593Z,59.90
2019-04-27T08:47:50.226Z,65.90
2019-04-27T08:48:52.793Z,62.20
2019-04-27T08:49:55.592Z,71.00
2019-04-27T08:50:59.328Z,66.70
2019-04-27T08:52:02.398Z,64.10
2019-04-27T08:53:04.930Z,64.20
2019-04-27T08:54:09.166Z,67.40
2019-04-27T08:55:12.932Z,64.40
2019-04-27T08:56:15.611Z,67.20
2019-04-27T08:57:18.794Z,67.20
2019-04-27T08:58:21.737Z,62.70
2019-04-27T08:59:24.304Z,64.40
2019-04-27T09:00:29.141Z,64.80
2019-04-27T09:01:32.102Z,66.00
2019-04-27T09:02:44.452Z,66.90
2019-04-27T09:03:39.559Z,69.00
2019-04-27T09:04:42.119Z,66.30
2019-04-27T09:05:44.614Z,64.00
2019-04-27T09:06:50.017Z,64.90
2019-04-27T09:08:18.970Z,63.90
2019-04-27T09:09:41.414Z,69.40
2019-04-27T09:11:00.189Z,67.60
2019-04-27T09:12:20.762Z,66.70
2019-04-27T09:13:49.030Z,66.40
2019-04-27T09:15:06.060Z,69.50
2019-04-27T09:16:43.350Z,69.70
2019-04-27T09:17:51.251Z,69.00
2019-04-27T09:18:56.556Z,70.50
2019-04-27T09:20:06.573Z,70.70
2019-04-27T09:21:10.625Z,68.50
2019-04-27T09:22:16.331Z,72.70
2019-04-27T09:23:18.823Z,69.50
2019-04-27T09:24:21.756Z,75.50
2019-04-27T09:25:24.448Z,76.50
2019-04-27T09:26:28.739Z,76.80
2019-04-27T09:27:31.655Z,74.00
2019-04-27T09:28:34.286Z,79.30
2019-04-27T09:29:37.142Z,76.30
2019-04-27T09:30:39.776Z,82.20
2019-04-27T09:31:42.536Z,83.50
2019-04-27T09:32:45.086Z,83.80
2019-04-27T09:33:48.043Z,81.50
2019-04-27T09:34:50.692Z,83.60
2019-04-27T09:35:53.361Z,86.40
2019-04-27T09:36:56.687Z,83.30
2019-04-27T09:38:00.794Z,84.20
2019-04-27T09:39:08.557Z,87.60
2019-04-27T09:40:11.998Z,81.70
2019-04-27T09:41:16.838Z,84.20
2019-04-27T09:42:19.348Z,84.40
2019-04-27T09:43:21.848Z,83.70
2019-04-27T09:44:26.533Z,83.00
2019-04-27T09:45:29.670Z,85.30
2019-04-27T09:46:34.065Z,84.30
2019-04-27T09:47:39.145Z,86.10
2019-04-27T09:48:41.588Z,83.70
2019-04-27T09:49:45.946Z,90.20
2019-04-27T09:50:49.530Z,91.20
2019-04-27T09:51:52.293Z,90.10
2019-04-27T09:52:56.675Z,88.70
2019-04-27T09:53:59.236Z,88.60
2019-04-27T09:55:03.131Z,85.00
2019-04-27T09:56:07.049Z,83.50
2019-04-27T09:57:11.531Z,82.70
2019-04-27T09:58:14.149Z,84.50
2019-04-27T09:59:16.723Z,86.50
2019-04-27T10:00:19.946Z,91.00
2019-04-27T10:01:22.878Z,91.90
2019-04-27T10:02:26.983Z,90.60
2019-04-27T10:03:29.678Z,86.50
2019-04-27T10:04:32.339Z,90.70
2019-04-27T10:05:37.746Z,91.10
2019-04-27T10:06:40.800Z,93.00
2019-04-27T10:07:43.330Z,91.70
2019-04-27T10:08:45.911Z,91.80
2019-04-27T10:09:48.433Z,89.60
2019-04-27T10:10:51.208Z,90.00
2019-04-27T10:11:53.817Z,90.50
2019-04-27T10:12:56.921Z,90.00
2019-04-27T10:13:59.803Z,92.00
2019-04-27T10:15:03.298Z,91.40
2019-04-27T10:16:06.378Z,91.90
2019-04-27T10:17:09.050Z,93.30
2019-04-27T10:18:11.626Z,92.70
2019-04-27T10:19:28.255Z,91.50
2019-04-27T10:20:20.477Z,93.00
2019-04-27T10:21:23.469Z,93.70
2019-04-27T10:22:39.898Z,94.30
2019-04-27T10:23:31.006Z,94.70
2019-04-27T10:24:33.575Z,94.60
2019-04-27T10:25:37.541Z,94.90
2019-04-27T10:26:43.597Z,96.90
2019-04-27T10:27:47.118Z,96.20
2019-04-27T10:28:49.730Z,98.60
2019-04-27T10:29:52.451Z,98.70
2019-04-27T10:30:55.753Z,99.20
2019-04-27T10:32:08.993Z,98.40
2019-04-27T10:33:11.921Z,98.60
2019-04-27T10:34:18.697Z,99.00
2019-04-27T10:35:21.236Z,99.80
2019-04-27T10:36:39.506Z,99.50
2019-04-27T10:37:42.158Z,98.80
2019-04-27T10:38:46.644Z,99.90
2019-04-27T10:39:49.333Z,99.10
2019-04-27T10:40:52.181Z,99.30
2019-04-27T10:41:56.358Z,99.60
2019-04-27T10:43:00.185Z,99.90
2019-04-27T10:44:02.745Z,99.90
2019-04-27T10:45:07.431Z,99.90
2019-04-27T10:46:10.346Z,99.90
2019-04-27T10:47:12.887Z,99.90
2019-04-27T10:48:16.367Z,99.90
2019-04-27T10:49:20.078Z,99.90
2019-04-27T10:50:26.364Z,99.90
2019-04-27T10:51:29.074Z,99.90
2019-04-27T10:52:31.885Z,99.90
2019-04-27T10:53:35.643Z,99.90
2019-04-27T10:54:38.994Z,99.90
2019-04-27T10:55:41.521Z,99.90
2019-04-27T10:56:46.033Z,99.90
2019-04-27T10:57:50.631Z,99.90
2019-04-27T10:58:53.468Z,99.90
2019-04-27T10:59:56.367Z,99.90
2019-04-27T11:01:02.363Z,99.90
2019-04-27T11:02:05.511Z,99.90
2019-04-27T11:03:08.430Z,99.90
2019-04-27T11:04:39.528Z,99.90
2019-04-27T11:06:06.103Z,99.90
2019-04-27T11:07:10.914Z,99.90
2019-04-27T11:08:13.851Z,99.90
2019-04-27T11:09:16.679Z,99.90
2019-04-27T11:10:19.648Z,99.90
2019-04-27T11:11:22.231Z,99.90
2019-04-27T11:12:25.119Z,99.90
2019-04-27T11:13:28.936Z,99.90
2019-04-27T11:14:31.874Z,99.90
2019-04-27T11:15:34.514Z,99.90
2019-04-27T11:16:37.766Z,99.90
2019-04-27T11:17:42.276Z,99.90
2019-04-27T11:18:47.023Z,99.90
2019-04-27T11:19:50.003Z,99.90
2019-04-27T11:20:52.872Z,99.90
2019-04-27T11:21:55.509Z,99.90
2019-04-27T11:23:07.258Z,99.90
2019-04-27T11:30:27.857Z,99.90
2019-04-27T12:28:41.036Z,99.90
2019-04-27T12:32:35.926Z,99.90
2019-04-27T12:36:03.143Z,99.90
2019-04-27T12:38:11.763Z,99.90
2019-04-27T13:11:45.818Z,99.90
2019-04-27T13:32:51.255Z,99.90
2019-04-27T13:43:08.309Z,99.90
2019-04-27T13:51:35.899Z,99.90
2019-04-27T14:18:19.005Z,99.90
2019-04-27T15:06:07.668Z,99.90
2019-04-27T15:26:07.906Z,99.90
2019-04-27T16:14:25.514Z,99.90
2019-04-27T16:17:11.744Z,99.90
2019-04-27T16:20:04.844Z,99.90
2019-04-27T16:24:42.206Z,99.90
2019-04-27T17:01:50.506Z,99.90
